Аэропорт: Минеральные Воды. Минеральные Воды

ICAO: URMM

METAR:
2019-09-21 16:00:00
URMM 211600Z 31009G14MPS 5000 -SHRA SCT016 OVC035CB 09/07 Q1019 RESHRA R30/290050 TEMPO VRB07G15MPS 0800 +TSRA SCT002 BKN020CB RMK QFE736/0981
METAR:
2019-09-21 14:22:00
TAF AMD URMM 211422Z 2115/2215 29003G08MPS 9999 BKN020CB TX12/2212Z TN08/2203Z TEMPO 2115/2205 30007G15MPS 3100 -TSRA BKN011 BKN020CB BECMG 2205/2207 27006G14MPS